Observation data for Denver City on 02/13/2018      Previous  Date  Next       Current Mesonet Observations  Soil Data  Daily Summary Page  Observations in Plain Language
KDVS 130600Z 12007KT M01/M09 A302 RMK A01 T10051091  RH  052%=      5-min Rain = 0
KDVS 130605Z 12007KT M00/M09 A302 RMK A01 T10041091  RH  052%=      5-min Rain = 0
KDVS 130610Z 12008KT M01/M09 A302 RMK A01 T10051090  RH  052%=      5-min Rain = 0
KDVS 130615Z 12008KT M00/M09 A302 RMK A01 T10041090  RH  052%=      5-min Rain = 0
KDVS 130620Z 12008KT M00/M09 A302 RMK A01 T10011089  RH  051%=      5-min Rain = 0
KDVS 130625Z 12007KT M00/M09 A302 RMK A01 T10011089  RH  051%=      5-min Rain = 0
KDVS 130630Z 12007KT M00/M09 A302 RMK A01 T10021090  RH  051%=      5-min Rain = 0
KDVS 130635Z 12007KT M01/M09 A302 RMK A01 T10051090  RH  052%=      5-min Rain = 0
KDVS 130640Z 12007KT M01/M09 A302 RMK A01 T10061090  RH  053%=      5-min Rain = 0
KDVS 130645Z 11007KT M01/M09 A302 RMK A01 T10061090  RH  053%=      5-min Rain = 0
KDVS 130650Z 11007KT M01/M09 A302 RMK A01 T10061090  RH  053%=      5-min Rain = 0
KDVS 130655Z 11006KT M01/M09 A302 RMK A01 T10061090  RH  053%=      5-min Rain = 0
KDVS 130700Z 11006KT M01/M09 A302 RMK A01 T10061090  RH  053%=      5-min Rain = 0
KDVS 130705Z 11007KT M01/M09 A302 RMK A01 T10071090  RH  053%=      5-min Rain = 0
KDVS 130710Z 12006KT M01/M09 A302 RMK A01 T10071090  RH  054%=      5-min Rain = 0
KDVS 130715Z 12007KT M01/M09 A302 RMK A01 T10091090  RH  054%=      5-min Rain = 0
KDVS 130720Z 12007KT M01/M09 A302 RMK A01 T10111091  RH  055%=      5-min Rain = 0
KDVS 130725Z 11007KT M01/M09 A302 RMK A01 T10141091  RH  055%=      5-min Rain = 0
KDVS 130730Z 11007KT M02/M09 A302 RMK A01 T10161091  RH  056%=      5-min Rain = 0
KDVS 130735Z 11006KT M02/M09 A302 RMK A01 T10161090  RH  057%=      5-min Rain = 0
KDVS 130740Z 11006KT M01/M09 A302 RMK A01 T10141089  RH  056%=      5-min Rain = 0
KDVS 130745Z 11006KT M01/M09 A302 RMK A01 T10131089  RH  056%=      5-min Rain = 0
KDVS 130750Z 11007KT M01/M09 A302 RMK A01 T10131089  RH  056%=      5-min Rain = 0
KDVS 130755Z 11007KT M01/M09 A302 RMK A01 T10111088  RH  056%=      5-min Rain = 0
KDVS 130800Z 11005KT M01/M09 A3021 RMK A01 T10111088  RH  055%=      5-min Rain = 0
KDVS 130805Z 10005KT M01/M09 A3021 RMK A01 T10091088  RH  055%=      5-min Rain = 0
KDVS 130810Z 10006KT M01/M09 A3022 RMK A01 T10101089  RH  055%=      5-min Rain = 0
KDVS 130815Z 09005KT M01/M09 A3022 RMK A01 T10101089  RH  055%=      5-min Rain = 0
KDVS 130820Z 09005KT M01/M09 A3022 RMK A01 T10101089  RH  055%=      5-min Rain = 0
KDVS 130825Z 09005KT M01/M09 A3022 RMK A01 T10101089  RH  055%=      5-min Rain = 0
KDVS 130830Z 09004KT M01/M09 A3023 RMK A01 T10111090  RH  055%=      5-min Rain = 0
KDVS 130835Z 09006KT M01/M09 A3022 RMK A01 T10121091  RH  055%=      5-min Rain = 0
KDVS 130840Z 09006KT M02/M09 A3022 RMK A01 T10161092  RH  056%=      5-min Rain = 0
KDVS 130845Z 08006KT M02/M09 A3022 RMK A01 T10191093  RH  057%=      5-min Rain = 0
KDVS 130850Z 09006KT M02/M09 A3022 RMK A01 T10221094  RH  058%=      5-min Rain = 0
KDVS 130855Z 09006KT M03/M10 A3022 RMK A01 T10271095  RH  059%=      5-min Rain = 0
KDVS 130900Z 09007KT M03/M10 A3021 RMK A01 T10301096  RH  060%=      5-min Rain = 0
KDVS 130905Z 09007KT M03/M10 A3021 RMK A01 T10311096  RH  061%=      5-min Rain = 0
KDVS 130910Z 07005KT M03/M10 A3021 RMK A01 T10321099  RH  060%=      5-min Rain = 0
KDVS 130915Z 06005KT M04/M10 A3021 RMK A01 T10411103  RH  062%=      5-min Rain = 0
KDVS 130920Z 07006KT M05/M10 A3021 RMK A01 T10451103  RH  064%=      5-min Rain = 0
KDVS 130925Z 07006KT M05/M10 A3021 RMK A01 T10461103  RH  064%=      5-min Rain = 0
KDVS 130930Z 06006KT M05/M10 A3021 RMK A01 T10461104  RH  064%=      5-min Rain = 0
KDVS 130935Z 05007KT M05/M11 A3021 RMK A01 T10481105  RH  064%=      5-min Rain = 0
KDVS 130940Z 04006KT M05/M11 A3021 RMK A01 T10491105  RH  065%=      5-min Rain = 0
KDVS 130945Z 05005KT M05/M10 A3021 RMK A01 T10491104  RH  065%=      5-min Rain = 0
KDVS 130950Z 06006KT M05/M10 A302 RMK A01 T10461103  RH  064%=      5-min Rain = 0
KDVS 130955Z 06006KT M05/M10 A3021 RMK A01 T10451102  RH  064%=      5-min Rain = 0
KDVS 131000Z 06004KT M04/M10 A3021 RMK A01 T10441102  RH  064%=      5-min Rain = 0
KDVS 131005Z 05004KT M04/M10 A3021 RMK A01 T10441102  RH  063%=      5-min Rain = 0
KDVS 131010Z 04004KT M04/M10 A3021 RMK A01 T10441102  RH  064%=      5-min Rain = 0
KDVS 131015Z 04004KT M04/M10 A3021 RMK A01 T10431102  RH  063%=      5-min Rain = 0
KDVS 131020Z 02004KT M04/M10 A3021 RMK A01 T10441103  RH  063%=      5-min Rain = 0
KDVS 131025Z 02004KT M04/M10 A3021 RMK A01 T10441102  RH  064%=      5-min Rain = 0
KDVS 131030Z 03004KT M04/M10 A3021 RMK A01 T10431102  RH  063%=      5-min Rain = 0
KDVS 131035Z 04004KT M04/M10 A3021 RMK A01 T10441102  RH  064%=      5-min Rain = 0
KDVS 131040Z 05004KT M05/M10 A3021 RMK A01 T10451101  RH  064%=      5-min Rain = 0
KDVS 131045Z 06003KT M04/M10 A3022 RMK A01 T10441101  RH  064%=      5-min Rain = 0
KDVS 131050Z 06003KT M04/M10 A3022 RMK A01 T10441102  RH  064%=      5-min Rain = 0
KDVS 131055Z 06003KT M04/M10 A3022 RMK A01 T10431103  RH  063%=      5-min Rain = 0
KDVS 131100Z 07003KT M04/M10 A3022 RMK A01 T10431102  RH  063%=      5-min Rain = 0
KDVS 131105Z 07003KT M04/M10 A3022 RMK A01 T10421103  RH  062%=      5-min Rain = 0
KDVS 131110Z 06002KT M04/M10 A3022 RMK A01 T10421104  RH  062%=      5-min Rain = 0
KDVS 131115Z 05003KT M04/M11 A3022 RMK A01 T10431105  RH  062%=      5-min Rain = 0
KDVS 131120Z 06003KT M04/M11 A3022 RMK A01 T10431105  RH  062%=      5-min Rain = 0
KDVS 131125Z 08004KT M04/M10 A3022 RMK A01 T10431104  RH  062%=      5-min Rain = 0
KDVS 131130Z 07004KT M04/M10 A3022 RMK A01 T10421104  RH  062%=      5-min Rain = 0
KDVS 131135Z 09004KT M04/M10 A3022 RMK A01 T10431104  RH  062%=      5-min Rain = 0
KDVS 131140Z 09004KT M04/M10 A3022 RMK A01 T10421104  RH  062%=      5-min Rain = 0
KDVS 131145Z 10004KT M04/M10 A3022 RMK A01 T10411103  RH  062%=      5-min Rain = 0
KDVS 131150Z 10005KT M04/M10 A3023 RMK A01 T10401103  RH  061%=      5-min Rain = 0
KDVS 131155Z 09005KT M04/M11 A3022 RMK A01 T10421105  RH  061%=      5-min Rain = 0
KDVS 131200Z 09005KT M05/M11 A3022 RMK A01 T10451106  RH  062%=      5-min Rain = 0
KDVS 131205Z 08005KT M05/M11 A3022 RMK A01 T10471107  RH  063%=      5-min Rain = 0
KDVS 131210Z 09006KT M05/M11 A3022 RMK A01 T10471106  RH  063%=      5-min Rain = 0
KDVS 131215Z 09005KT M05/M11 A3022 RMK A01 T10471106  RH  063%=      5-min Rain = 0
KDVS 131220Z 09005KT M05/M11 A3022 RMK A01 T10461105  RH  063%=      5-min Rain = 0
KDVS 131225Z 08005KT M05/M11 A3022 RMK A01 T10461105  RH  063%=      5-min Rain = 0
KDVS 131230Z 08005KT M05/M11 A3022 RMK A01 T10461106  RH  063%=      5-min Rain = 0
KDVS 131235Z 09005KT M05/M10 A3023 RMK A01 T10461104  RH  063%=      5-min Rain = 0
KDVS 131240Z 08004KT M05/M11 A3023 RMK A01 T10451105  RH  063%=      5-min Rain = 0
KDVS 131245Z 05004KT M05/M11 A3023 RMK A01 T10471108  RH  062%=      5-min Rain = 0
KDVS 131250Z 01005KT M05/M11 A3024 RMK A01 T10511107  RH  064%=      5-min Rain = 0
KDVS 131255Z 04005KT M05/M10 A3024 RMK A01 T10501104  RH  065%=      5-min Rain = 0
KDVS 131300Z 04004KT M05/M10 A3024 RMK A01 T10481104  RH  065%=      5-min Rain = 0
KDVS 131305Z 05004KT M05/M10 A3024 RMK A01 T10471103  RH  065%=      5-min Rain = 0
KDVS 131310Z 06004KT M05/M10 A3024 RMK A01 T10461102  RH  065%=      5-min Rain = 0
KDVS 131315Z 07004KT M05/M10 A3024 RMK A01 T10451101  RH  065%=      5-min Rain = 0
KDVS 131320Z 07005KT M05/M10 A3024 RMK A01 T10451102  RH  064%=      5-min Rain = 0
KDVS 131325Z 07004KT M05/M10 A3025 RMK A01 T10471104  RH  064%=      5-min Rain = 0
KDVS 131330Z 08004KT M05/M10 A3025 RMK A01 T10481103  RH  066%=      5-min Rain = 0
KDVS 131335Z 09004KT M05/M10 A3025 RMK A01 T10471102  RH  065%=      5-min Rain = 0
KDVS 131340Z 08004KT M05/M10 A3025 RMK A01 T10461102  RH  065%=      5-min Rain = 0
KDVS 131345Z 08003KT M05/M10 A3025 RMK A01 T10451102  RH  064%=      5-min Rain = 0
KDVS 131350Z 09004KT M04/M10 A3025 RMK A01 T10441102  RH  064%=      5-min Rain = 0
KDVS 131355Z 09005KT M04/M10 A3025 RMK A01 T10441103  RH  063%=      5-min Rain = 0
KDVS 131400Z 10004KT M04/M10 A3025 RMK A01 T10421102  RH  063%=      5-min Rain = 0
KDVS 131405Z 10004KT M04/M10 A3026 RMK A01 T10371100  RH  061%=      5-min Rain = 0
KDVS 131410Z 10004KT M04/M10 A3026 RMK A01 T10351099  RH  061%=      5-min Rain = 0
KDVS 131415Z 10003KT M03/M10 A3025 RMK A01 T10311096  RH  061%=      5-min Rain = 0
KDVS 131420Z 11003KT M02/M09 A3026 RMK A01 T10241092  RH  059%=      5-min Rain = 0
KDVS 131425Z 11003KT M02/M09 A3026 RMK A01 T10191088  RH  059%=      5-min Rain = 0
KDVS 131430Z 12004KT M02/M08 A3027 RMK A01 T10161084  RH  060%=      5-min Rain = 0
KDVS 131435Z 11005KT M01/M08 A3026 RMK A01 T10141082  RH  060%=      5-min Rain = 0
KDVS 131440Z 12005KT M01/M08 A3027 RMK A01 T10091078  RH  060%=      5-min Rain = 0
KDVS 131445Z 13005KT M00/M08 A3027 RMK A01 T10041075  RH  059%=      5-min Rain = 0
KDVS 131450Z 13005KT 00/07 A3027 RMK A01 T00-00-72  RH  059%=      5-min Rain = 0
KDVS 131455Z 14005KT 00/M07 A3028 RMK A01 T00041069  RH  058%=      5-min Rain = 0
KDVS 131500Z 13005KT 01/M07 A3027 RMK A01 T00081066  RH  058%=      5-min Rain = 0
KDVS 131505Z 14005KT 01/M06 A3027 RMK A01 T00111064  RH  058%=      5-min Rain = 0
KDVS 131510Z 14006KT 01/M06 A3028 RMK A01 T00141062  RH  057%=      5-min Rain = 0
KDVS 131515Z 15007KT 02/M06 A3028 RMK A01 T00181059  RH  057%=      5-min Rain = 0
KDVS 131520Z 15009KT 02/M05 A3029 RMK A01 T00221054  RH  057%=      5-min Rain = 0
KDVS 131525Z 16008KT 03/M05 A3029 RMK A01 T00281049  RH  057%=      5-min Rain = 0
KDVS 131530Z 16008KT 03/M05 A3029 RMK A01 T00311048  RH  056%=      5-min Rain = 0
KDVS 131535Z 17009KT 03/M05 A3029 RMK A01 T00331046  RH  056%=      5-min Rain = 0
KDVS 131540Z 16009KT 04/M04 A3029 RMK A01 T00381044  RH  055%=      5-min Rain = 0
KDVS 131545Z 17010KT 04/M04 A3029 RMK A01 T00421042  RH  055%=      5-min Rain = 0
KDVS 131550Z 17009KT 04/M04 A3029 RMK A01 T00441041  RH  054%=      5-min Rain = 0
KDVS 131555Z 17008KT 04/M04 A3029 RMK A01 T00441041  RH  054%=      5-min Rain = 0
KDVS 131600Z 19009KT 05/M04 A3029 RMK A01 T00501039  RH  053%=      5-min Rain = 0
KDVS 131605Z 20007KT 05/M04 A3029 RMK A01 T00531037  RH  052%=      5-min Rain = 0
KDVS 131610Z 19010KT 06/M03 A3029 RMK A01 T00561033  RH  053%=      5-min Rain = 0
KDVS 131615Z 19009KT 06/M03 A303 RMK A01 T00561033  RH  053%=      5-min Rain = 0
KDVS 131620Z 19008KT 06/M03 A303 RMK A01 T00571033  RH  053%=      5-min Rain = 0
KDVS 131625Z 20008KT 06/M03 A303 RMK A01 T00581032  RH  053%=      5-min Rain = 0
KDVS 131630Z 20007KT 06/M03 A303 RMK A01 T00591030  RH  053%=      5-min Rain = 0
KDVS 131635Z 19009KT 06/M03 A303 RMK A01 T00601029  RH  053%=      5-min Rain = 0
KDVS 131640Z 19008KT 06/M03 A303 RMK A01 T00611029  RH  053%=      5-min Rain = 0
KDVS 131645Z 19008KT 06/M03 A303 RMK A01 T00641030  RH  051%=      5-min Rain = 0
KDVS 131650Z 20008KT 07/M03 A303 RMK A01 T00651030  RH  051%=      5-min Rain = 0
KDVS 131655Z 19008KT 07/M03 A303 RMK A01 T00651031  RH  051%=      5-min Rain = 0
KDVS 131700Z 18008KT 07/M03 A303 RMK A01 T00701030  RH  049%=      5-min Rain = 0
KDVS 131705Z 19008KT 07/M03 A303 RMK A01 T00691030  RH  049%=      5-min Rain = 0
KDVS 131710Z 20007KT 07/M03 A303 RMK A01 T00711029  RH  050%=      5-min Rain = 0
KDVS 131715Z 17006KT 07/M03 A303 RMK A01 T00731028  RH  049%=      5-min Rain = 0
KDVS 131720Z 17006G11KT 08/M03 A303 RMK A01 T00771028  RH  047%=      5-min Rain = 0
KDVS 131725Z 18006KT 08/M03 A3029 RMK A01 T00761028  RH  048%=      5-min Rain = 0
KDVS 131730Z 18007KT 08/M03 A3029 RMK A01 T00801028  RH  047%=      5-min Rain = 0
KDVS 131735Z 17007KT 08/M03 A3029 RMK A01 T00831027  RH  046%=      5-min Rain = 0
KDVS 131740Z 18006KT 09/M03 A3029 RMK A01 T00851026  RH  046%=      5-min Rain = 0
KDVS 131745Z 17006KT 09/M03 A3028 RMK A01 T00901025  RH  045%=      5-min Rain = 0
KDVS 131750Z 16008KT 09/M03 A3028 RMK A01 T00921026  RH  044%=      5-min Rain = 0
KDVS 131755Z 17008KT 09/M03 A3028 RMK A01 T00931026  RH  043%=      5-min Rain = 0
KDVS 131800Z 16010KT 09/M03 A3028 RMK A01 T00941026  RH  043%=      5-min Rain = 0
KDVS 131805Z 16008KT 10/M02 A3028 RMK A01 T00971024  RH  043%=      5-min Rain = 0
KDVS 131810Z 16008KT 10/M02 A3028 RMK A01 T01031022  RH  042%=      5-min Rain = 0
KDVS 131815Z 17009KT 11/M02 A3028 RMK A01 T01051020  RH  042%=      5-min Rain = 0
KDVS 131820Z 18009G14KT 10/M02 A3028 RMK A01 T01011020  RH  043%=      5-min Rain = 0
KDVS 131825Z 16009KT 11/M02 A3028 RMK A01 T01061019  RH  042%=      5-min Rain = 0
KDVS 131830Z 18009KT 11/M02 A3028 RMK A01 T01081020  RH  041%=      5-min Rain = 0
KDVS 131835Z 18008KT 11/M02 A3028 RMK A01 T01101019  RH  041%=      5-min Rain = 0
KDVS 131840Z 18008KT 11/M02 A3028 RMK A01 T01091019  RH  041%=      5-min Rain = 0
KDVS 131845Z 19008KT 11/M02 A3027 RMK A01 T01101018  RH  041%=      5-min Rain = 0
KDVS 131850Z 19008KT 11/M02 A3027 RMK A01 T01121019  RH  040%=      5-min Rain = 0
KDVS 131855Z 18008KT 12/M02 A3027 RMK A01 T01151017  RH  040%=      5-min Rain = 0
KDVS 131900Z 19008KT 12/M02 A3026 RMK A01 T01181017  RH  039%=      5-min Rain = 0
KDVS 131905Z 20007KT 12/M02 A3026 RMK A01 T01191017  RH  039%=      5-min Rain = 0
KDVS 131910Z 20008KT 12/M02 A3026 RMK A01 T01231017  RH  038%=      5-min Rain = 0
KDVS 131915Z 18008G13KT 12/M02 A3026 RMK A01 T01241018  RH  038%=      5-min Rain = 0
KDVS 131920Z 17007KT 13/M02 A3025 RMK A01 T01261017  RH  037%=      5-min Rain = 0
KDVS 131925Z 16009G14KT 13/M02 A3025 RMK A01 T01281018  RH  037%=      5-min Rain = 0
KDVS 131930Z 14007KT 13/M02 A3025 RMK A01 T01311017  RH  036%=      5-min Rain = 0
KDVS 131935Z 17008KT 14/M02 A3025 RMK A01 T01351019  RH  035%=      5-min Rain = 0
KDVS 131940Z 17009KT 14/M02 A3025 RMK A01 T01371020  RH  034%=      5-min Rain = 0
KDVS 131945Z 17007KT 13/M02 A3024 RMK A01 T01331020  RH  035%=      5-min Rain = 0
KDVS 131950Z 15008G13KT 14/M02 A3023 RMK A01 T01371020  RH  034%=      5-min Rain = 0
KDVS 131955Z 15009KT 14/M02 A3023 RMK A01 T01411021  RH  033%=      5-min Rain = 0
KDVS 132000Z 16007KT 14/M02 A3023 RMK A01 T01411020  RH  033%=      5-min Rain = 0
KDVS 132005Z 16009KT 14/M02 A3023 RMK A01 T01431019  RH  033%=      5-min Rain = 0
KDVS 132010Z 16009KT 15/M02 A3023 RMK A01 T01481019  RH  032%=      5-min Rain = 0
KDVS 132015Z 17009G14KT 15/M02 A3023 RMK A01 T01481019  RH  032%=      5-min Rain = 0
KDVS 132020Z 16008G13KT 15/M02 A3023 RMK A01 T01501019  RH  031%=      5-min Rain = 0
KDVS 132025Z 16009KT 15/M02 A3023 RMK A01 T01511019  RH  031%=      5-min Rain = 0
KDVS 132030Z 18008KT 15/M02 A3023 RMK A01 T01511019  RH  031%=      5-min Rain = 0
KDVS 132035Z 17007G12KT 15/M02 A3023 RMK A01 T01501018  RH  032%=      5-min Rain = 0
KDVS 132040Z 18009G14KT 16/M02 A3023 RMK A01 T01561018  RH  031%=      5-min Rain = 0
KDVS 132045Z 19009KT 16/M02 A3023 RMK A01 T01601017  RH  030%=      5-min Rain = 0
KDVS 132050Z 19009G14KT 16/M02 A3023 RMK A01 T01581019  RH  030%=      5-min Rain = 0
KDVS 132055Z 20008KT 16/M02 A3023 RMK A01 T01571017  RH  031%=      5-min Rain = 0
KDVS 132100Z 20010KT 16/M02 A3023 RMK A01 T01621016  RH  030%=      5-min Rain = 0
KDVS 132105Z 19007G13KT 16/M02 A3023 RMK A01 T01591017  RH  030%=      5-min Rain = 0
KDVS 132110Z 19009KT 16/M02 A3023 RMK A01 T01581018  RH  030%=      5-min Rain = 0
KDVS 132115Z 19008KT 16/M02 A3022 RMK A01 T01611016  RH  030%=      5-min Rain = 0
KDVS 132120Z 18007KT 16/M02 A3022 RMK A01 T01631016  RH  030%=      5-min Rain = 0
KDVS 132125Z 17008KT 17/M02 A3022 RMK A01 T01651015  RH  029%=      5-min Rain = 0
KDVS 132130Z 18009KT 17/M01 A3022 RMK A01 T01661014  RH  029%=      5-min Rain = 0
KDVS 132135Z 17007G17KT 17/M01 A3022 RMK A01 T01671013  RH  029%=      5-min Rain = 0
KDVS 132140Z 17008KT 17/M01 A3022 RMK A01 T01671014  RH  029%=      5-min Rain = 0
KDVS 132145Z 17008KT 17/M02 A3022 RMK A01 T01671015  RH  029%=      5-min Rain = 0
KDVS 132150Z 17007KT 17/M01 A3022 RMK A01 T01661014  RH  029%=      5-min Rain = 0
KDVS 132155Z 16008KT 17/M01 A3022 RMK A01 T01661014  RH  030%=      5-min Rain = 0
KDVS 132200Z 16008KT 17/M01 A3021 RMK A01 T01651014  RH  030%=      5-min Rain = 0
KDVS 132205Z 14007KT 17/M01 A3021 RMK A01 T01651013  RH  030%=      5-min Rain = 0
KDVS 132210Z 17008KT 17/M01 A3021 RMK A01 T01681014  RH  029%=      5-min Rain = 0
KDVS 132215Z 15008KT 17/M01 A3021 RMK A01 T01701013  RH  029%=      5-min Rain = 0
KDVS 132220Z 17008KT 17/M02 A3021 RMK A01 T01711015  RH  028%=      5-min Rain = 0
KDVS 132225Z 16009KT 17/M01 A3021 RMK A01 T01691013  RH  029%=      5-min Rain = 0
KDVS 132230Z 15008KT 17/M01 A3021 RMK A01 T01711013  RH  029%=      5-min Rain = 0
KDVS 132235Z 15008KT 17/M01 A3021 RMK A01 T01711013  RH  029%=      5-min Rain = 0
KDVS 132240Z 16009KT 17/M01 A3021 RMK A01 T01701013  RH  029%=      5-min Rain = 0
KDVS 132245Z 15008KT 17/M01 A3021 RMK A01 T01671013  RH  029%=      5-min Rain = 0
KDVS 132250Z 17008KT 17/M01 A3021 RMK A01 T01681013  RH  029%=      5-min Rain = 0
KDVS 132255Z 16009KT 17/M01 A3021 RMK A01 T01671014  RH  029%=      5-min Rain = 0
KDVS 132300Z 15009KT 17/M01 A3021 RMK A01 T01701013  RH  029%=      5-min Rain = 0
KDVS 132305Z 17009KT 17/M01 A3021 RMK A01 T01711013  RH  029%=      5-min Rain = 0
KDVS 132310Z 15009KT 17/M01 A3022 RMK A01 T01711014  RH  029%=      5-min Rain = 0
KDVS 132315Z 16010KT 17/M01 A3022 RMK A01 T01691014  RH  029%=      5-min Rain = 0
KDVS 132320Z 16008KT 17/M01 A3022 RMK A01 T01681014  RH  029%=      5-min Rain = 0
KDVS 132325Z 15009KT 17/M01 A3022 RMK A01 T01691014  RH  029%=      5-min Rain = 0
KDVS 132330Z 15008KT 17/M01 A3021 RMK A01 T01681014  RH  029%=      5-min Rain = 0
KDVS 132335Z 15008KT 17/M01 A3021 RMK A01 T01671014  RH  029%=      5-min Rain = 0
KDVS 132340Z 15009KT 16/M02 A3021 RMK A01 T01641015  RH  030%=      5-min Rain = 0
KDVS 132345Z 16008KT 16/M02 A3021 RMK A01 T01611017  RH  030%=      5-min Rain = 0
KDVS 132350Z 16007KT 16/M02 A3021 RMK A01 T01581017  RH  030%=      5-min Rain = 0
KDVS 132355Z 16007KT 16/M02 A3022 RMK A01 T01581017  RH  030%=      5-min Rain = 0
KDVS 140000Z 16007KT 16/M02 A3022 RMK A01 T01551017  RH  031%=      5-min Rain = 0
KDVS 140005Z 15006KT 15/M02 A3022 RMK A01 T01521017  RH  032%=      5-min Rain = 0
KDVS 140010Z 15006KT 15/M02 A3022 RMK A01 T01471019  RH  032%=      5-min Rain = 0
KDVS 140015Z 15006KT 14/M02 A3022 RMK A01 T01421020  RH  033%=      5-min Rain = 0
KDVS 140020Z 15006KT 14/M02 A3022 RMK A01 T01361021  RH  034%=      5-min Rain = 0
KDVS 140025Z 15007KT 13/M02 A3022 RMK A01 T01301021  RH  035%=      5-min Rain = 0
KDVS 140030Z 15006KT 13/M02 A3022 RMK A01 T01251020  RH  037%=      5-min Rain = 0
KDVS 140035Z 15006KT 12/M02 A3022 RMK A01 T01201020  RH  038%=      5-min Rain = 0
KDVS 140040Z 15007KT 12/M02 A3023 RMK A01 T01161020  RH  039%=      5-min Rain = 0
KDVS 140045Z 15008KT 11/M02 A3023 RMK A01 T01121020  RH  040%=      5-min Rain = 0
KDVS 140050Z 15008KT 11/M02 A3023 RMK A01 T01081020  RH  041%=      5-min Rain = 0
KDVS 140055Z 15008KT 10/M02 A3023 RMK A01 T01031020  RH  042%=      5-min Rain = 0
KDVS 140100Z 15008KT 10/M02 A3023 RMK A01 T00971022  RH  044%=      5-min Rain = 0
KDVS 140105Z 15008KT 09/M02 A3023 RMK A01 T00911023  RH  045%=      5-min Rain = 0
KDVS 140110Z 15008KT 09/M02 A3023 RMK A01 T00861023  RH  046%=      5-min Rain = 0
KDVS 140115Z 15008KT 08/M02 A3023 RMK A01 T00821024  RH  048%=      5-min Rain = 0
KDVS 140120Z 14007KT 08/M02 A3023 RMK A01 T00791024  RH  048%=      5-min Rain = 0
KDVS 140125Z 14007KT 08/M02 A3023 RMK A01 T00781023  RH  049%=      5-min Rain = 0
KDVS 140130Z 15006KT 08/M02 A3023 RMK A01 T00801023  RH  049%=      5-min Rain = 0
KDVS 140135Z 15006KT 08/M02 A3023 RMK A01 T00801023  RH  049%=      5-min Rain = 0
KDVS 140140Z 15006KT 08/M02 A3023 RMK A01 T00801022  RH  049%=      5-min Rain = 0
KDVS 140145Z 15006KT 08/M02 A3024 RMK A01 T00801021  RH  049%=      5-min Rain = 0
KDVS 140150Z 15006KT 08/M02 A3024 RMK A01 T00791022  RH  049%=      5-min Rain = 0
KDVS 140155Z 15007KT 08/M02 A3024 RMK A01 T00761023  RH  050%=      5-min Rain = 0
KDVS 140200Z 15007KT 07/M02 A3023 RMK A01 T00731024  RH  051%=      5-min Rain = 0
KDVS 140205Z 15008KT 07/M02 A3023 RMK A01 T00701024  RH  052%=      5-min Rain = 0
KDVS 140210Z 16008KT 07/M02 A3023 RMK A01 T00721021  RH  052%=      5-min Rain = 0
KDVS 140215Z 17008KT 08/M02 A3024 RMK A01 T00751019  RH  052%=      5-min Rain = 0
KDVS 140220Z 17009KT 08/M02 A3024 RMK A01 T00771018  RH  051%=      5-min Rain = 0
KDVS 140225Z 18008KT 08/M02 A3024 RMK A01 T00801018  RH  051%=      5-min Rain = 0
KDVS 140230Z 19009KT 08/M02 A3024 RMK A01 T00791017  RH  051%=      5-min Rain = 0
KDVS 140235Z 19009KT 08/M02 A3024 RMK A01 T00761019  RH  051%=      5-min Rain = 0
KDVS 140240Z 19009KT 07/M02 A3024 RMK A01 T00741019  RH  052%=      5-min Rain = 0
KDVS 140245Z 20009KT 07/M02 A3024 RMK A01 T00741022  RH  051%=      5-min Rain = 0
KDVS 140250Z 20008KT 07/M02 A3024 RMK A01 T00721022  RH  051%=      5-min Rain = 0
KDVS 140255Z 20008KT 07/M02 A3025 RMK A01 T00711022  RH  052%=      5-min Rain = 0
KDVS 140300Z 20007KT 07/M02 A3025 RMK A01 T00701023  RH  052%=      5-min Rain = 0
KDVS 140305Z 20006KT 07/M02 A3025 RMK A01 T00701022  RH  052%=      5-min Rain = 0
KDVS 140310Z 20005KT 07/M02 A3025 RMK A01 T00701022  RH  053%=      5-min Rain = 0
KDVS 140315Z 19005KT 07/M02 A3025 RMK A01 T00711020  RH  053%=      5-min Rain = 0
KDVS 140320Z 19005KT 07/M02 A3025 RMK A01 T00741019  RH  052%=      5-min Rain = 0
KDVS 140325Z 18005KT 08/M02 A3025 RMK A01 T00761019  RH  051%=      5-min Rain = 0
KDVS 140330Z 19004KT 08/M02 A3025 RMK A01 T00771019  RH  051%=      5-min Rain = 0
KDVS 140335Z 18004KT 08/M02 A3025 RMK A01 T00771019  RH  051%=      5-min Rain = 0
KDVS 140340Z 18002KT 08/M02 A3025 RMK A01 T00761021  RH  051%=      5-min Rain = 0
KDVS 140345Z 19001KT 07/M02 A3026 RMK A01 T00731021  RH  052%=      5-min Rain = 0
KDVS 140350Z 19001KT 07/M02 A3026 RMK A01 T00691023  RH  052%=      5-min Rain = 0
KDVS 140355Z 18002KT 06/M02 A3025 RMK A01 T00611024  RH  055%=      5-min Rain = 0
KDVS 140400Z 18003KT 06/M02 A3026 RMK A01 T00621020  RH  056%=      5-min Rain = 0
KDVS 140405Z 19003KT 07/M02 A3026 RMK A01 T00661018  RH  055%=      5-min Rain = 0
KDVS 140410Z 19003KT 07/M02 A3026 RMK A01 T00721018  RH  053%=      5-min Rain = 0
KDVS 140415Z 20003KT 07/M02 A3026 RMK A01 T00731018  RH  053%=      5-min Rain = 0
KDVS 140420Z 20001KT 07/M02 A3026 RMK A01 T00711022  RH  052%=      5-min Rain = 0
KDVS 140425Z 19001KT 07/M03 A3025 RMK A01 T00651026  RH  052%=      5-min Rain = 0
KDVS 140430Z 20001KT 06/M02 A3025 RMK A01 T00591022  RH  056%=      5-min Rain = 0
KDVS 140435Z 20002KT 06/M02 A3025 RMK A01 T00621019  RH  057%=      5-min Rain = 0
KDVS 140440Z 20003KT 06/M02 A3025 RMK A01 T00631017  RH  057%=      5-min Rain = 0
KDVS 140445Z 22002KT 07/M02 A3026 RMK A01 T00661020  RH  054%=      5-min Rain = 0
KDVS 140450Z 27002KT 06/M04 A3026 RMK A01 T00561037  RH  052%=      5-min Rain = 0
KDVS 140455Z 29002KT 05/M04 A3026 RMK A01 T00461037  RH  055%=      5-min Rain = 0
KDVS 140500Z 29001KT 04/M04 A3026 RMK A01 T00431035  RH  057%=      5-min Rain = 0
KDVS 140505Z 29001KT 04/M03 A3026 RMK A01 T00431033  RH  058%=      5-min Rain = 0
KDVS 140510Z 31002KT 04/M03 A3025 RMK A01 T00441032  RH  058%=      5-min Rain = 0
KDVS 140515Z 33003KT 04/M04 A3025 RMK A01 T00401039  RH  057%=      5-min Rain = 0
KDVS 140520Z 32003KT 04/M04 A3025 RMK A01 T00381038  RH  058%=      5-min Rain = 0
KDVS 140525Z 29003KT 04/M04 A3025 RMK A01 T00371038  RH  058%=      5-min Rain = 0
KDVS 140530Z 27003KT 04/M03 A3025 RMK A01 T00421029  RH  060%=      5-min Rain = 0
KDVS 140535Z 26005KT 05/M03 A3025 RMK A01 T00491028  RH  058%=      5-min Rain = 0
KDVS 140540Z 24006KT 05/M03 A3025 RMK A01 T00511028  RH  057%=      5-min Rain = 0
KDVS 140545Z 24006KT 05/M03 A3025 RMK A01 T00501033  RH  055%=      5-min Rain = 0
KDVS 140550Z 24006KT 04/M04 A3025 RMK A01 T00431038  RH  056%=      5-min Rain = 0
KDVS 140555Z 24006KT 04/M03 A3025 RMK A01 T00421032  RH  059%=      5-min Rain = 0

Page generated in 0.0107 seconds.